Time;durP1;ratioP1;P1;durP2;ratioP2;P2;SDS_P1;SDS_P2;PMS_P1;PMS_P2;Temp;Humidity;BMP_temperature;BMP_pressure;BME280_temperature;BME280_humidity;BME280_pressure;Samples;Min_cycle;Max_cycle;Signal;HPM_P1;HPM_P2
2023/02/08 00:01:28;;;;;;;26.43;11.43;;;-0.50;99.90;;;;;;5093512;28;20024;-66
2023/02/08 00:03:54;;;;;;;20.88;10.90;;;-0.50;99.90;;;;;;5093895;28;20054;-66
2023/02/08 00:06:20;;;;;;;23.43;11.87;;;-0.50;99.90;;;;;;5093822;28;20035;-66
2023/02/08 00:08:45;;;;;;;21.40;11.07;;;-0.50;99.90;;;;;;5093908;28;20039;-66
2023/02/08 00:11:11;;;;;;;21.85;11.13;;;-0.60;99.90;;;;;;5093899;28;20036;-66
2023/02/08 00:13:40;;;;;;;26.17;11.48;;;-0.60;99.90;;;;;;5093213;28;20035;-67
2023/02/08 00:16:06;;;;;;;22.92;10.73;;;-0.60;99.90;;;;;;5093374;28;20024;-67
2023/02/08 00:18:32;;;;;;;20.05;12.07;;;-0.60;99.90;;;;;;5075191;28;20043;-67
2023/02/08 00:20:57;;;;;;;22.23;11.10;;;-0.60;99.90;;;;;;5093422;28;20482;-67
2023/02/08 00:23:24;;;;;;;23.93;11.50;;;-0.60;99.90;;;;;;5093340;28;20016;-66
2023/02/08 00:25:50;;;;;;;19.52;11.07;;;-0.60;99.90;;;;;;5074978;28;20022;-66
2023/02/08 00:28:17;;;;;;;20.37;10.70;;;-0.60;99.90;;;;;;5093209;28;20032;-68
2023/02/08 00:30:43;;;;;;;21.25;11.63;;;-0.60;99.90;;;;;;5093119;28;20031;-67
2023/02/08 00:33:08;;;;;;;21.48;11.38;;;-0.70;99.90;;;;;;5093628;28;20028;-67
2023/02/08 00:35:35;;;;;;;24.77;11.38;;;-0.70;99.90;;;;;;5093597;28;20442;-67
2023/02/08 00:38:00;;;;;;;22.23;11.73;;;-0.70;99.90;;;;;;5093551;28;20028;-67
2023/02/08 00:40:26;;;;;;;21.30;11.03;;;-0.70;99.90;;;;;;5093158;28;20020;-67
2023/02/08 00:42:52;;;;;;;23.95;11.70;;;-0.70;99.90;;;;;;5093008;28;20066;-67
2023/02/08 00:45:18;;;;;;;23.55;12.27;;;-0.70;99.90;;;;;;5074879;28;20024;-67
2023/02/08 00:47:44;;;;;;;22.33;10.93;;;-0.70;99.90;;;;;;5093187;28;20463;-67
2023/02/08 00:50:10;;;;;;;21.90;11.03;;;-0.80;99.90;;;;;;5093133;28;20071;-67
2023/02/08 00:52:36;;;;;;;20.55;10.95;;;-0.70;99.90;;;;;;5092519;28;20035;-66
2023/02/08 00:55:03;;;;;;;23.90;12.40;;;-0.80;99.90;;;;;;5096679;28;20105;-66
2023/02/08 00:57:30;;;;;;;;;;;-0.80;99.90;;;;;;5079493;28;20039;-66
2023/02/08 00:59:56;;;;;;;21.17;11.20;;;-0.80;99.90;;;;;;5096864;28;20257;-66
2023/02/08 01:02:21;;;;;;;23.03;12.00;;;-0.80;99.90;;;;;;5096997;28;20024;-67
2023/02/08 01:04:47;;;;;;;21.03;11.07;;;-0.80;99.90;;;;;;5111331;22;20028;-63
2023/02/08 01:07:12;;;;;;;24.67;12.37;;;-0.80;99.90;;;;;;5089481;28;20032;-63
2023/02/08 01:09:38;;;;;;;23.70;11.60;;;-0.90;99.90;;;;;;5076038;28;20491;-64
2023/02/08 01:12:03;;;;;;;25.83;12.63;;;-0.90;99.90;;;;;;5076389;28;20031;-63
2023/02/08 01:14:29;;;;;;;23.07;12.00;;;-0.90;99.90;;;;;;5093864;28;20039;-63
2023/02/08 01:16:54;;;;;;;21.67;11.40;;;-1.00;99.90;;;;;;5096086;28;20036;-62
2023/02/08 01:19:20;;;;;;;25.70;11.33;;;-1.00;99.90;;;;;;5096515;28;20020;-64
2023/02/08 01:21:47;;;;;;;22.40;11.43;;;-1.00;99.90;;;;;;5096375;28;20110;-62
2023/02/08 01:24:13;;;;;;;22.60;12.55;;;-1.00;99.90;;;;;;5096994;28;20023;-63
2023/02/08 01:26:39;;;;;;;20.83;10.27;;;-1.00;99.90;;;;;;5096828;28;20028;-64
2023/02/08 01:29:05;;;;;;;26.87;12.27;;;-1.10;99.90;;;;;;5095177;28;20031;-64
2023/02/08 01:31:33;;;;;;;20.93;11.70;;;-1.10;99.90;;;;;;5096002;28;20131;-64
2023/02/08 01:34:00;;;;;;;20.40;10.60;;;-1.10;99.90;;;;;;5095931;28;20032;-64
2023/02/08 01:36:26;;;;;;;22.05;11.18;;;-1.10;99.90;;;;;;5095792;28;20028;-65
2023/02/08 01:38:52;;;;;;;20.73;10.43;;;-1.20;99.90;;;;;;5094681;28;20032;-61
2023/02/08 01:41:27;;;;;;;23.35;11.27;;;-1.20;99.90;;;;;;5094826;28;20148;-62
2023/02/08 01:44:01;;;;;;;24.33;11.73;;;-1.20;99.90;;;;;;5096160;28;20035;-63
2023/02/08 01:46:28;;;;;;;19.73;10.90;;;-1.30;99.90;;;;;;5096108;28;20024;-63
2023/02/08 01:48:58;;;;;;;20.42;10.20;;;-1.20;99.90;;;;;;5095704;28;20123;-63
2023/02/08 01:51:31;;;;;;;20.77;10.68;;;-1.30;99.90;;;;;;5095633;28;20063;-65
2023/02/08 01:53:59;;;;;;;23.98;11.77;;;-1.30;99.90;;;;;;5096232;28;20060;-62
2023/02/08 01:56:28;;;;;;;21.30;10.57;;;-1.30;99.90;;;;;;5096252;28;20036;-62
2023/02/08 01:58:59;;;;;;;22.35;10.88;;;-1.30;99.90;;;;;;5095558;28;20024;-64
2023/02/08 02:01:26;;;;;;;23.73;10.77;;;-1.40;99.90;;;;;;5095806;28;20062;-63
2023/02/08 02:03:52;;;;;;;22.50;12.13;;;-1.40;99.90;;;;;;5095634;28;20051;-62
2023/02/08 02:06:25;;;;;;;24.67;11.75;;;-1.40;99.90;;;;;;5094334;28;20054;-63
2023/02/08 02:09:22;;;;;;;18.52;10.52;;;-1.40;99.90;;;;;;5095438;28;20028;-63
2023/02/08 02:11:50;;;;;;;22.73;11.10;;;-1.40;99.90;;;;;;5075450;28;20021;-64
2023/02/08 02:14:16;;;;;;;27.50;12.15;;;-1.40;99.90;;;;;;5081640;28;20426;-62
2023/02/08 02:16:42;;;;;;;22.67;11.98;;;-1.50;99.90;;;;;;5095434;28;20020;-64
2023/02/08 02:19:25;;;;;;;22.90;10.73;;;-1.50;99.90;;;;;;5096868;28;20036;-63
2023/02/08 02:22:00;;;;;;;21.95;11.25;;;-1.50;99.90;;;;;;5094906;28;20024;-63
2023/02/08 02:25:08;;;;;;;23.17;11.93;;;-1.50;99.90;;;;;;5095659;28;20161;-63
2023/02/08 02:27:52;;;;;;;25.65;12.13;;;-1.50;99.90;;;;;;5095698;28;20020;-62
2023/02/08 02:30:24;;;;;;;23.88;12.00;;;-1.50;99.90;;;;;;5095045;28;20025;-62
2023/02/08 02:32:58;;;;;;;26.25;12.02;;;-1.60;99.90;;;;;;5094999;28;20043;-63
2023/02/08 02:35:43;;;;;;;24.38;11.25;;;-1.60;99.90;;;;;;5095404;28;20035;-62
2023/02/08 02:38:33;;;;;;;23.38;11.90;;;-1.60;99.90;;;;;;5094917;28;20035;-63
2023/02/08 02:43:40;;;;;;;22.35;10.90;;;-1.60;99.90;;;;;;5094170;28;20024;-62
2023/02/08 02:44:04;;;;;;;25.13;11.88;;;-1.50;99.90;;;;;;5074477;28;20497;-62
2023/02/08 02:46:43;;;;;;;21.27;11.35;;;-1.60;99.90;;;;;;5077664;28;20024;-63
2023/02/08 02:49:20;;;;;;;22.38;11.98;;;-1.60;99.90;;;;;;5093680;28;20032;-63
2023/02/08 02:51:52;;;;;;;23.67;12.27;;;-1.60;99.90;;;;;;5094801;28;20039;-63
2023/02/08 02:54:53;;;;;;;25.48;12.63;;;-1.60;99.90;;;;;;5094900;28;20040;-63
2023/02/08 02:57:26;;;;;;;23.55;11.40;;;-1.60;99.90;;;;;;5092746;28;20020;-63
2023/02/08 02:59:52;;;;;;;22.13;11.23;;;-1.70;99.90;;;;;;5094458;28;20020;-62
2023/02/08 03:02:18;;;;;;;24.03;11.27;;;-1.60;99.90;;;;;;5094209;28;20089;-63
2023/02/08 03:04:55;;;;;;;23.52;11.80;;;-1.60;99.90;;;;;;5094466;28;20031;-64
2023/02/08 03:07:44;;;;;;;23.02;11.68;;;-1.60;99.90;;;;;;5093655;28;20063;-64
2023/02/08 03:10:55;;;;;;;25.58;11.70;;;-1.70;99.90;;;;;;5074110;28;20549;-64
2023/02/08 03:13:59;;;;;;;21.30;11.05;;;-1.70;99.90;;;;;;5093090;28;20089;-64
2023/02/08 03:16:52;;;;;;;24.83;10.77;;;-1.70;99.90;;;;;;5068998;28;20048;-64
2023/02/08 03:19:53;;;;;;;24.58;11.80;;;-1.70;99.90;;;;;;5092450;28;20368;-63
2023/02/08 03:22:37;;;;;;;22.38;11.10;;;-1.70;99.90;;;;;;5093918;28;20020;-63
2023/02/08 03:25:29;;;;;;;21.67;11.65;;;-1.70;99.90;;;;;;5094517;28;20020;-63
2023/02/08 03:28:18;;;;;;;21.65;10.60;;;-1.80;99.90;;;;;;5093992;28;20032;-59
2023/02/08 03:31:00;;;;;;;20.70;12.13;;;-1.80;99.90;;;;;;5093787;28;20024;-62
2023/02/08 03:33:36;;;;;;;23.35;11.63;;;-1.80;99.90;;;;;;5093999;28;20035;-62
2023/02/08 03:36:19;;;;;;;27.35;11.18;;;-1.80;99.90;;;;;;5092146;28;20492;-64
2023/02/08 03:38:46;;;;;;;23.45;12.00;;;-1.80;99.90;;;;;;5093915;28;20020;-63
2023/02/08 03:41:18;;;;;;;21.38;11.10;;;-1.80;99.90;;;;;;5093635;28;20016;-63
2023/02/08 03:44:16;;;;;;;24.40;11.27;;;-1.80;99.90;;;;;;5094117;28;20020;-64
2023/02/08 03:46:49;;;;;;;23.52;10.43;;;-1.70;99.90;;;;;;5011738;28;20192;-62
2023/02/08 03:49:20;;;;;;;19.20;11.27;;;-1.70;99.90;;;;;;5010029;28;20526;-63
2023/02/08 03:51:47;;;;;;;21.20;11.30;;;-1.80;99.90;;;;;;5009866;28;20045;-64
2023/02/08 03:54:19;;;;;;;21.60;11.05;;;-1.70;99.90;;;;;;5007393;28;20045;-64
2023/02/08 03:56:56;;;;;;;22.30;12.02;;;-1.80;99.90;;;;;;4991867;28;20046;-64
2023/02/08 03:59:25;;;;;;;;;;;-1.80;99.90;;;;;;4992421;28;20034;-62
2023/02/08 04:01:57;;;;;;;20.35;10.38;;;-1.90;99.90;;;;;;4993375;28;20394;-64
2023/02/08 04:04:25;;;;;;;22.77;11.30;;;-1.80;99.90;;;;;;4992107;28;20038;-64
2023/02/08 04:06:50;;;;;;;24.85;12.20;;;-1.80;99.90;;;;;;5002620;28;20470;-62
2023/02/08 04:09:16;;;;;;;20.87;11.30;;;-1.90;99.90;;;;;;5011424;28;20049;-63
2023/02/08 04:11:41;;;;;;;21.70;10.33;;;-1.80;99.90;;;;;;4997655;28;20085;-63
2023/02/08 04:14:07;;;;;;;20.67;10.60;;;-1.90;99.90;;;;;;4992715;28;20073;-63
2023/02/08 04:16:33;;;;;;;21.90;11.30;;;-1.90;99.90;;;;;;4991530;28;20038;-63
2023/02/08 04:18:58;;;;;;;22.73;10.90;;;-1.90;99.90;;;;;;4991694;28;20034;-63
2023/02/08 04:21:24;;;;;;;20.07;10.57;;;-1.90;99.90;;;;;;4997045;28;20434;-63
2023/02/08 04:23:49;;;;;;;25.20;11.83;;;-2.00;99.90;;;;;;5072931;28;20070;-63
2023/02/08 04:26:14;;;;;;;19.60;10.50;;;-1.90;99.90;;;;;;5092918;28;20035;-62
2023/02/08 04:28:40;;;;;;;23.17;10.97;;;-2.00;99.90;;;;;;5093309;28;20027;-63
2023/02/08 04:31:06;;;;;;;20.87;10.80;;;-1.90;99.90;;;;;;5092066;28;20013;-63
2023/02/08 04:33:31;;;;;;;23.30;11.07;;;-1.90;99.90;;;;;;5092732;28;20036;-65
2023/02/08 04:35:57;;;;;;;23.87;11.10;;;-1.90;99.90;;;;;;5092913;28;20045;-63
2023/02/08 04:38:22;;;;;;;24.97;11.80;;;-1.90;99.90;;;;;;5091684;28;20150;-63
2023/02/08 04:40:48;;;;;;;23.63;11.60;;;-2.00;99.90;;;;;;5093122;28;20020;-63
2023/02/08 04:43:13;;;;;;;21.43;10.97;;;-1.90;99.90;;;;;;5093236;28;20426;-63
2023/02/08 04:45:39;;;;;;;25.47;12.63;;;-2.00;99.90;;;;;;5092735;28;20036;-64
2023/02/08 04:48:06;;;;;;;25.53;11.50;;;-2.00;99.90;;;;;;5092878;28;20036;-63
2023/02/08 04:50:31;;;;;;;18.60;10.00;;;-2.00;99.90;;;;;;5093057;28;20403;-63
2023/02/08 04:52:57;;;;;;;24.80;10.97;;;-2.00;99.90;;;;;;5091380;28;20024;-63
2023/02/08 04:55:22;;;;;;;22.67;11.30;;;-2.00;99.90;;;;;;5092623;28;20273;-63
2023/02/08 04:57:48;;;;;;;18.87;10.30;;;-2.00;99.90;;;;;;5092618;28;20028;-63
2023/02/08 05:00:14;;;;;;;19.53;10.07;;;-2.00;99.90;;;;;;5093274;28;20078;-63
2023/02/08 05:02:39;;;;;;;22.92;11.13;;;-2.00;99.90;;;;;;5093917;28;20023;-60
2023/02/08 05:05:05;;;;;;;21.77;11.27;;;-2.00;99.90;;;;;;5092677;28;20044;-62
2023/02/08 05:07:31;;;;;;;21.20;11.60;;;-2.00;99.90;;;;;;5092405;28;20032;-60
2023/02/08 05:09:56;;;;;;;23.33;11.43;;;-2.10;99.90;;;;;;5091490;28;20032;-61
2023/02/08 05:12:22;;;;;;;18.60;10.17;;;-2.10;99.90;;;;;;5092550;28;20028;-63
2023/02/08 05:14:47;;;;;;;20.93;11.30;;;-2.10;99.90;;;;;;5092573;28;20028;-63
2023/02/08 05:17:13;;;;;;;24.43;10.67;;;-2.10;99.90;;;;;;5092852;28;20031;-61
2023/02/08 05:19:38;;;;;;;20.53;11.10;;;-2.10;99.90;;;;;;5092504;28;20020;-63
2023/02/08 05:22:04;;;;;;;20.00;10.30;;;-2.10;99.90;;;;;;5092085;28;20024;-63
2023/02/08 05:24:30;;;;;;;19.40;10.13;;;-2.10;99.90;;;;;;5092884;28;20103;-62
2023/02/08 05:26:55;;;;;;;25.90;11.20;;;-2.10;99.90;;;;;;5092635;28;20077;-62
2023/02/08 05:29:20;;;;;;;20.50;11.40;;;-2.10;99.90;;;;;;5091110;28;20031;-63
2023/02/08 05:31:46;;;;;;;22.17;10.93;;;-2.10;99.90;;;;;;5092635;28;20532;-63
2023/02/08 05:34:12;;;;;;;23.57;10.73;;;-2.10;99.90;;;;;;5092210;28;20028;-62
2023/02/08 05:36:38;;;;;;;19.63;10.40;;;-2.10;99.90;;;;;;5092113;28;20032;-64
2023/02/08 05:39:04;;;;;;;21.15;10.43;;;-2.20;99.90;;;;;;5091018;28;20032;-64
2023/02/08 05:41:29;;;;;;;21.67;11.10;;;-2.10;99.90;;;;;;5094204;28;20024;-64
2023/02/08 05:43:55;;;;;;;21.10;11.57;;;-2.10;99.90;;;;;;5093974;28;20396;-64
2023/02/08 05:46:20;;;;;;;20.17;10.50;;;-2.10;99.90;;;;;;5096184;28;20055;-64
2023/02/08 05:48:46;;;;;;;20.80;10.30;;;-2.10;99.90;;;;;;5096176;28;20020;-63
2023/02/08 05:51:11;;;;;;;21.70;11.30;;;-2.20;99.90;;;;;;5095860;28;20023;-63
2023/02/08 05:53:37;;;;;;;19.87;11.13;;;-2.20;99.90;;;;;;5095135;28;20024;-61
2023/02/08 05:56:03;;;;;;;19.17;9.97;;;-2.20;99.90;;;;;;5094869;28;20027;-64
2023/02/08 05:58:29;;;;;;;22.90;11.00;;;-2.20;99.90;;;;;;5095257;28;20036;-64
2023/02/08 06:00:55;;;;;;;25.30;9.85;;;-2.20;99.90;;;;;;5096114;28;20396;-64
2023/02/08 06:03:21;;;;;;;20.70;10.00;;;-2.30;99.90;;;;;;5096442;28;20448;-62
2023/02/08 06:05:47;;;;;;;19.00;9.52;;;-2.20;99.90;;;;;;5095105;28;20374;-62
2023/02/08 06:08:12;;;;;;;24.47;10.80;;;-2.20;99.90;;;;;;5093824;28;20062;-64
2023/02/08 06:10:38;;;;;;;19.03;10.27;;;-2.20;99.90;;;;;;5083875;28;20277;-62
2023/02/08 06:13:03;;;;;;;19.03;10.70;;;-2.20;99.90;;;;;;5095797;28;20028;-61
2023/02/08 06:15:29;;;;;;;20.88;10.55;;;-2.20;99.90;;;;;;5092787;28;20038;-60
2023/02/08 06:17:55;;;;;;;20.02;10.63;;;-2.30;99.90;;;;;;5095260;28;20511;-63
2023/02/08 06:20:20;;;;;;;22.40;10.70;;;-2.20;99.90;;;;;;5094627;28;20024;-64
2023/02/08 06:22:46;;;;;;;18.73;10.17;;;-2.20;99.90;;;;;;5095434;28;20035;-60
2023/02/08 06:25:11;;;;;;;19.83;10.57;;;-2.20;99.90;;;;;;5095053;28;20024;-64
2023/02/08 06:27:37;;;;;;;25.33;10.77;;;-2.20;99.90;;;;;;5096376;28;20482;-62
2023/02/08 06:30:03;;;;;;;25.47;10.97;;;-2.20;99.90;;;;;;5096801;28;20020;-63
2023/02/08 06:32:29;;;;;;;20.58;10.68;;;-2.10;99.90;;;;;;5096525;28;20020;-62
2023/02/08 06:34:54;;;;;;;26.53;11.03;;;-2.10;99.90;;;;;;5094715;28;20453;-63
2023/02/08 06:37:20;;;;;;;23.57;11.20;;;-2.20;99.90;;;;;;5095060;28;20286;-63
2023/02/08 06:39:45;;;;;;;20.80;11.70;;;-2.20;99.90;;;;;;5095360;28;20020;-68
2023/02/08 06:42:11;;;;;;;22.53;10.53;;;-2.20;99.90;;;;;;5095735;28;20016;-70
2023/02/08 06:44:37;;;;;;;23.03;11.47;;;-2.20;99.90;;;;;;5078514;28;20021;-70
2023/02/08 06:47:03;;;;;;;20.27;10.50;;;-2.20;99.90;;;;;;5090549;28;20051;-70
2023/02/08 06:49:28;;;;;;;21.10;10.93;;;-2.20;99.90;;;;;;5094932;28;20093;-71
2023/02/08 06:51:54;;;;;;;22.07;11.23;;;-2.20;99.90;;;;;;5093085;28;20020;-70
2023/02/08 06:54:19;;;;;;;20.73;9.80;;;-2.20;99.90;;;;;;5093504;28;20369;-70
2023/02/08 06:56:45;;;;;;;22.43;11.10;;;-2.20;99.90;;;;;;5093544;28;20042;-72
2023/02/08 06:59:11;;;;;;;23.37;11.17;;;-2.20;99.90;;;;;;5094502;28;20086;-70
2023/02/08 07:01:36;;;;;;;20.03;10.07;;;-2.20;99.90;;;;;;5093320;28;20430;-70
2023/02/08 07:04:02;;;;;;;22.97;10.80;;;-2.20;99.90;;;;;;5093440;28;20081;-70
2023/02/08 07:06:28;;;;;;;18.77;9.77;;;-2.10;99.90;;;;;;5138921;22;20061;-69
2023/02/08 07:08:53;;;;;;;22.90;10.60;;;-2.20;99.90;;;;;;5133530;27;20600;-70
2023/02/08 07:11:19;;;;;;;24.20;11.93;;;-2.10;99.90;;;;;;5124525;27;20020;-68
2023/02/08 07:13:47;;;;;;;19.63;11.65;;;-2.20;99.90;;;;;;5135699;27;20023;-67
2023/02/08 07:16:13;;;;;;;22.50;11.40;;;-2.10;99.90;;;;;;5136571;27;20446;-67
2023/02/08 07:18:39;;;;;;;21.83;11.00;;;-2.20;99.90;;;;;;5137164;27;20046;-67
2023/02/08 07:21:05;;;;;;;26.43;11.00;;;-2.10;99.90;;;;;;5116823;27;20019;-67
2023/02/08 07:23:30;;;;;;;18.98;10.15;;;-2.10;99.90;;;;;;5135088;27;20102;-67
2023/02/08 07:26:04;;;;;;;23.33;11.38;;;-2.10;99.90;;;;;;5136552;27;20563;-67
2023/02/08 07:28:30;;;;;;;22.15;11.38;;;-2.10;99.90;;;;;;5118354;27;20034;-69
2023/02/08 07:30:56;;;;;;;18.83;10.13;;;-2.10;99.90;;;;;;5116611;27;20043;-70
2023/02/08 07:33:22;;;;;;;18.93;9.67;;;-2.10;99.90;;;;;;5124820;27;20498;-68
2023/02/08 07:35:48;;;;;;;23.67;12.23;;;-2.10;99.90;;;;;;5136450;27;20027;-67
2023/02/08 07:38:13;;;;;;;22.03;10.13;;;-2.10;99.90;;;;;;5135210;27;20041;-67
2023/02/08 07:40:39;;;;;;;22.02;11.02;;;-2.00;99.90;;;;;;5115953;27;20030;-67
2023/02/08 07:43:05;;;;;;;23.80;10.53;;;-2.00;99.90;;;;;;5115188;28;20379;-67
2023/02/08 07:45:30;;;;;;;20.17;11.00;;;-2.00;99.90;;;;;;5113593;28;20057;-67
2023/02/08 07:47:56;;;;;;;22.73;11.80;;;-2.00;99.90;;;;;;5115484;28;20466;-67
2023/02/08 07:50:21;;;;;;;24.17;10.80;;;-1.90;99.90;;;;;;5133952;27;20023;-67
2023/02/08 07:52:47;;;;;;;22.43;11.03;;;-1.90;99.90;;;;;;5135137;27;20024;-68
2023/02/08 07:55:17;;;;;;;23.60;11.60;;;-1.90;99.90;;;;;;5117271;27;20019;-68
2023/02/08 07:57:43;;;;;;;24.00;12.13;;;-1.90;99.90;;;;;;5126033;27;20023;-68
2023/02/08 08:00:10;;;;;;;20.83;10.25;;;-1.80;99.90;;;;;;5114853;28;20487;-68
2023/02/08 08:02:35;;;;;;;26.20;11.20;;;-1.80;99.90;;;;;;5114086;28;20072;-67
2023/02/08 08:05:01;;;;;;;22.90;11.53;;;-1.80;99.90;;;;;;5122121;27;20106;-68
2023/02/08 08:07:26;;;;;;;21.83;11.67;;;-1.80;99.90;;;;;;5133937;27;20035;-68
2023/02/08 08:09:52;;;;;;;19.13;11.50;;;-1.80;99.90;;;;;;5134338;27;20019;-66
2023/02/08 08:12:17;;;;;;;22.60;11.27;;;-1.70;99.90;;;;;;5122267;27;20038;-67
2023/02/08 08:14:43;;;;;;;24.80;10.77;;;-1.70;99.90;;;;;;5132397;27;20029;-66
2023/02/08 08:17:08;;;;;;;34.77;11.10;;;-1.70;99.90;;;;;;5109553;28;20031;-66
2023/02/08 08:19:34;;;;;;;22.07;11.57;;;-1.60;99.90;;;;;;5121670;27;20046;-66
2023/02/08 08:21:59;;;;;;;21.37;10.60;;;-1.60;99.90;;;;;;5123195;27;20412;-67
2023/02/08 08:24:25;;;;;;;23.73;11.37;;;-1.60;99.90;;;;;;5126178;27;20011;-67
2023/02/08 08:26:50;;;;;;;22.67;11.30;;;-1.50;99.90;;;;;;5121904;28;20027;-66
2023/02/08 08:29:16;;;;;;;26.77;12.03;;;-1.50;99.90;;;;;;5105124;28;20032;-66
2023/02/08 08:31:43;;;;;;;23.33;11.07;;;-1.40;99.90;;;;;;5121959;28;20421;-66
2023/02/08 08:34:09;;;;;;;23.17;12.23;;;-1.30;99.90;;;;;;5118343;28;20054;-65
2023/02/08 08:36:34;;;;;;;24.70;10.93;;;-1.30;99.90;;;;;;5109110;28;20031;-66
2023/02/08 08:39:00;;;;;;;23.23;11.37;;;-1.30;99.90;;;;;;5123757;28;20304;-67
2023/02/08 08:41:27;;;;;;;20.93;11.47;;;-1.20;99.90;;;;;;5124655;28;20395;-67
2023/02/08 08:43:52;;;;;;;20.63;10.70;;;-1.20;99.90;;;;;;5105017;28;20027;-66
2023/02/08 08:46:18;;;;;;;22.48;11.07;;;-1.10;99.90;;;;;;5122476;28;20391;-66
2023/02/08 08:48:45;;;;;;;24.40;11.27;;;-1.00;99.90;;;;;;5121878;28;20049;-67
2023/02/08 08:51:12;;;;;;;21.55;11.27;;;-0.90;99.90;;;;;;5105684;28;20023;-67
2023/02/08 08:53:38;;;;;;;21.55;10.85;;;-0.80;99.90;;;;;;5120657;28;20012;-68
2023/02/08 08:56:04;;;;;;;21.80;10.87;;;-0.80;99.90;;;;;;5127721;28;20028;-67
2023/02/08 08:58:30;;;;;;;25.20;11.05;;;-0.80;99.90;;;;;;5134873;28;20063;-68
2023/02/08 09:00:57;;;;;;;23.37;11.10;;;-0.80;99.90;;;;;;5119955;28;20027;-67
2023/02/08 09:03:23;;;;;;;23.55;11.85;;;-0.70;99.90;;;;;;5124211;28;20076;-66
2023/02/08 09:05:49;;;;;;;23.00;11.38;;;-0.70;99.90;;;;;;5134472;28;20027;-67
2023/02/08 09:08:14;;;;;;;29.53;11.83;;;-0.60;99.90;;;;;;5111977;28;20495;-67
2023/02/08 09:10:40;;;;;;;18.43;10.07;;;-0.50;99.90;;;;;;5125391;28;20088;-67
2023/02/08 09:13:05;;;;;;;23.73;10.67;;;-0.50;99.90;;;;;;5121570;28;20399;-67
2023/02/08 09:15:31;;;;;;;20.20;10.43;;;-0.50;99.90;;;;;;5126009;27;20094;-67
2023/02/08 09:17:56;;;;;;;19.87;10.43;;;-0.40;99.90;;;;;;5128246;27;20023;-67
2023/02/08 09:20:22;;;;;;;22.70;10.90;;;-0.20;99.90;;;;;;5125713;27;20119;-67
2023/02/08 09:22:48;;;;;;;25.08;10.60;;;-0.20;99.90;;;;;;5125512;27;20015;-66
2023/02/08 09:25:14;;;;;;;23.87;10.77;;;-0.10;99.90;;;;;;5136903;27;20031;-67
2023/02/08 09:27:39;;;;;;;24.30;10.97;;;-0.10;99.90;;;;;;5127755;27;20029;-66
2023/02/08 09:30:05;;;;;;;29.40;11.23;;;0.00;99.90;;;;;;5116992;27;20024;-66
2023/02/08 09:32:38;;;;;;;19.85;10.05;;;0.10;99.90;;;;;;5116821;28;20059;-66
2023/02/08 09:35:04;;;;;;;24.15;10.82;;;0.10;99.90;;;;;;5108100;27;20031;-67
2023/02/08 09:37:30;;;;;;;23.50;11.77;;;0.30;99.90;;;;;;5117281;27;20063;-68
2023/02/08 09:39:58;;;;;;;23.83;11.37;;;0.30;99.90;;;;;;5117139;27;20399;-70
2023/02/08 09:42:27;;;;;;;23.63;11.40;;;0.50;99.90;;;;;;5117065;27;20020;-68
2023/02/08 09:45:36;;;;;;;20.00;10.70;;;0.60;99.90;;;;;;5129536;27;20074;-69
2023/02/08 09:48:22;;;;;;;18.88;9.85;;;1.00;99.90;;;;;;5030046;28;20036;-68
2023/02/08 09:50:53;;;;;;;20.33;10.65;;;1.70;99.90;;;;;;5025298;28;20077;-67
2023/02/08 09:53:42;;;;;;;18.23;9.77;;;2.80;98.80;;;;;;5014177;28;20052;-68
2023/02/08 09:56:14;;;;;;;20.20;10.25;;;4.00;96.10;;;;;;5025827;28;20506;-68
2023/02/08 09:58:44;;;;;;;19.98;9.77;;;5.10;93.30;;;;;;5029330;28;20038;-68
2023/02/08 10:01:21;;;;;;;15.25;9.43;;;6.50;90.90;;;;;;5025678;28;20117;-69
2023/02/08 10:03:50;;;;;;;20.92;10.80;;;8.00;84.80;;;;;;5032432;28;20037;-69
2023/02/08 10:06:18;;;;;;;17.98;9.55;;;7.90;82.00;;;;;;5018155;28;20045;-68
2023/02/08 10:08:46;;;;;;;18.85;9.65;;;6.70;83.10;;;;;;5024194;28;20022;-69
2023/02/08 10:11:39;;;;;;;17.77;9.82;;;6.10;85.00;;;;;;5028359;28;20076;-69
2023/02/08 10:14:22;;;;;;;18.05;9.80;;;5.20;86.70;;;;;;5023266;28;20022;-69
2023/02/08 10:16:53;;;;;;;20.15;10.55;;;4.70;87.50;;;;;;5032644;28;20025;-69
2023/02/08 10:19:44;;;;;;;18.10;9.88;;;4.40;88.60;;;;;;5101934;27;20031;-71
2023/02/08 10:22:46;;;;;;;19.02;10.10;;;4.20;89.30;;;;;;5115805;28;20095;-70
2023/02/08 10:25:15;;;;;;;26.88;10.10;;;4.30;90.00;;;;;;5117932;27;20027;-71
2023/02/08 10:28:03;;;;;;;19.05;10.13;;;4.30;89.50;;;;;;5104686;28;20024;-69
2023/02/08 10:30:53;;;;;;;18.92;8.98;;;4.50;89.70;;;;;;5129337;27;20023;-69
2023/02/08 10:33:41;;;;;;;16.58;9.70;;;4.90;88.30;;;;;;5118352;27;20030;-70
2023/02/08 10:36:18;;;;;;;19.63;9.32;;;5.40;85.80;;;;;;5138813;27;20023;-71
2023/02/08 10:38:44;;;;;;;18.45;11.23;;;5.20;83.60;;;;;;5130594;27;20023;-67
2023/02/08 10:41:17;;;;;;;18.17;9.30;;;5.20;84.50;;;;;;5126003;27;20411;-67
2023/02/08 10:43:50;;;;;;;16.02;8.68;;;5.20;83.70;;;;;;5132382;27;20020;-69
2023/02/08 10:46:30;;;;;;;14.63;9.07;;;5.40;82.90;;;;;;5130693;27;20027;-70
2023/02/08 10:49:15;;;;;;;16.92;9.38;;;5.90;81.30;;;;;;5118463;27;20106;-70
2023/02/08 10:51:41;;;;;;;16.70;9.32;;;6.20;81.60;;;;;;5120157;27;20047;-70
2023/02/08 10:54:14;;;;;;;18.60;9.20;;;6.40;80.90;;;;;;5136308;27;20042;-70
2023/02/08 10:56:45;;;;;;;15.30;8.55;;;6.50;77.70;;;;;;5133339;27;20089;-69
2023/02/08 10:59:38;;;;;;;17.45;8.98;;;5.90;75.50;;;;;;5115230;28;20023;-70
2023/02/08 11:02:21;;;;;;;12.40;7.60;;;6.10;76.00;;;;;;5126284;27;20080;-70
2023/02/08 11:05:05;;;;;;;15.95;9.23;;;6.40;74.30;;;;;;5135629;27;20023;-68
2023/02/08 11:07:31;;;;;;;13.02;7.95;;;6.00;74.10;;;;;;5137307;27;20031;-71
2023/02/08 11:10:18;;;;;;;15.40;8.32;;;6.30;73.70;;;;;;5137889;27;20062;-71
2023/02/08 11:12:56;;;;;;;13.32;7.72;;;6.20;74.10;;;;;;5117154;28;20035;-70
2023/02/08 11:15:39;;;;;;;15.30;7.63;;;6.20;73.60;;;;;;5121217;27;20027;-70
2023/02/08 11:18:06;;;;;;;15.55;7.60;;;6.10;74.30;;;;;;5117629;27;20480;-70
2023/02/08 11:20:38;;;;;;;17.45;9.10;;;6.10;74.00;;;;;;5117265;27;20027;-69
2023/02/08 11:23:23;;;;;;;16.05;8.70;;;5.60;75.20;;;;;;5118254;27;20058;-70
2023/02/08 11:25:49;;;;;;;17.77;9.40;;;5.10;76.70;;;;;;5120806;27;20115;-70
2023/02/08 11:28:28;;;;;;;16.17;8.73;;;4.40;78.40;;;;;;5119941;27;20019;-70
2023/02/08 11:31:00;;;;;;;18.20;8.68;;;4.10;79.60;;;;;;5130276;27;20460;-69
2023/02/08 11:33:27;;;;;;;16.58;8.32;;;3.90;79.90;;;;;;5120241;28;20047;-68
2023/02/08 11:36:12;;;;;;;14.38;7.70;;;3.90;80.30;;;;;;5118331;28;20024;-66
2023/02/08 11:38:41;;;;;;;18.00;8.45;;;3.90;80.80;;;;;;5116091;27;20031;-67
2023/02/08 11:41:14;;;;;;;17.00;8.48;;;3.90;80.70;;;;;;5132434;27;20034;-68
2023/02/08 11:43:41;;;;;;;19.50;8.10;;;3.80;81.10;;;;;;5124245;27;20027;-69
2023/02/08 11:46:07;;;;;;;15.20;8.20;;;3.80;81.20;;;;;;5138973;27;20027;-66
2023/02/08 11:48:50;;;;;;;16.80;8.40;;;3.80;80.80;;;;;;5137366;27;20467;-67
2023/02/08 11:51:26;;;;;;;15.95;8.43;;;3.80;80.10;;;;;;5130325;27;20034;-68
2023/02/08 11:53:52;;;;;;;17.07;8.07;;;3.80;80.30;;;;;;5116594;27;20379;-67
2023/02/08 11:56:23;;;;;;;15.20;8.23;;;3.90;80.70;;;;;;5136044;27;20076;-67
2023/02/08 11:59:15;;;;;;;15.88;8.45;;;4.00;80.90;;;;;;5118919;28;20152;-69
2023/02/08 12:01:42;;;;;;;16.85;8.90;;;4.00;80.60;;;;;;5123645;27;20443;-67
2023/02/08 12:04:11;;;;;;;16.27;7.85;;;4.00;80.90;;;;;;5122546;27;20055;-66
2023/02/08 12:06:45;;;;;;;16.20;8.80;;;4.00;81.20;;;;;;5116349;28;20494;-67
2023/02/08 12:09:29;;;;;;;17.92;8.90;;;4.10;81.70;;;;;;5117733;28;20372;-67
2023/02/08 12:12:32;;;;;;;22.40;8.52;;;4.20;81.70;;;;;;5129033;27;20477;-67
2023/02/08 12:15:17;;;;;;;45.70;17.35;;;4.30;82.60;;;;;;5045042;28;20033;-68
2023/02/08 12:17:57;;;;;;;20.17;9.50;;;4.40;81.40;;;;;;5039509;28;20060;-68
2023/02/08 12:20:32;;;;;;;19.88;9.38;;;4.40;81.20;;;;;;5021397;28;20033;-68
2023/02/08 12:23:23;;;;;;;18.92;8.68;;;4.40;81.30;;;;;;5050953;28;20025;-68
2023/02/08 12:25:58;;;;;;;16.90;8.65;;;4.40;80.90;;;;;;5033131;28;20124;-68
2023/02/08 12:28:47;;;;;;;19.92;8.90;;;4.40;81.20;;;;;;5032184;28;20040;-68
2023/02/08 12:31:43;;;;;;;15.68;8.55;;;4.50;81.10;;;;;;5040471;28;20362;-66
2023/02/08 12:34:29;;;;;;;19.83;8.88;;;4.50;81.50;;;;;;5050806;28;20441;-69
2023/02/08 12:43:19;;;;;;;17.00;8.73;;;4.80;82.70;;;;;;5051840;28;20075;-67
2023/02/08 12:45:54;;;;;;;17.08;8.70;;;4.80;83.50;;;;;;5050875;28;20115;-64
2023/02/08 12:48:46;;;;;;;15.77;8.93;;;4.80;84.20;;;;;;5034710;28;20039;-66
2023/02/08 12:51:12;;;;;;;16.75;8.80;;;4.90;83.60;;;;;;5072098;28;20035;-65
2023/02/08 12:53:51;;;;;;;17.80;9.50;;;5.00;83.80;;;;;;5118119;27;20034;-64
2023/02/08 12:56:22;;;;;;;16.92;9.23;;;5.00;83.90;;;;;;5119415;27;20031;-64
2023/02/08 12:58:52;;;;;;;16.90;8.85;;;4.90;84.00;;;;;;5132121;27;20035;-65